Wetterstation Rottenburg Seebronn / 442m msl / http://mut-lambrecht.de
LETZTE AKTUALISIERUNG UM: 16:00 DATUM: Juni 27 2017, time of next update: 16:05
Aktuelles Wetterpartly cloudy Aktuelle Temperatur 27.4°C (81.3°F) (Hitze-Index 28.4°C ), Apparent temp 28.0°C
Höchsttemperatur (seit Mitternacht)27.9°C um: 15:27 Tiefsttemperatur (seit Mitternacht)17.5°C um: 04:55
Windgeschwindigkeit (10 Minuten )11.1 kmh (6.0 kts) Windrichtung (Dir) (10 Minuten )SSW (198°)
Hitze-Index 28.4°C Windspitzen (letzte Std)20.7 kmh (11.2 kts) um: 15:53
Windspitzen (seit Mitternacht)24.1 kmh (13.0 kts) um: 00:09 Höchstes Windmittel / Minute (seit Mitternacht)14.4 kmh (7.8 kts) um: 00:00
Regenmenge (letzte Std)0.0 mm Regenmenge (seit Mitternacht)5.6 mm (0.22 in.) at 06:15
Regenmenge diesen Monat 48.5 mm (1.91 in.) Regenmenge seit Jahresbeginn 216.5 mm (8.52 in.)
Höchste Regenmenge pro Minute (letzte Std)0.0 mm/min Höchste Regenmenge pro Stunde (letzte 6 Std)0.0 mm/stunde
Regenmenge Gestern 1.4 mm Taupunkt 18.4°C (Wet Bulb :21.6°C )
Luftfeuchtigkeit 58 %, Humidex 33.7°C Aktueller Luftdruck (auf Meereshöhe bezogen)1011.2 hPa
Luftdrucktendenz 0.0 hPa (letzte Std) Trend (letzte 1 Std)gleichbleibend
Luftdrucktendenz (letzte 12 Std)-2.1 hPa Luftdrucktendenz (letzte 6 Std)-1.8 hPa



Weather report/warning/Metars

Stuttgart-Echterdingen, Germany (EDDS) 48-41N 009-13E 391M
Jun 27, 2017 - 09:20 AM EDT / 2017.06.27 1320 UTC
Wind: Variable at 3 MPH (3 KT):0
Visibility: greater than 7 mile(s):0
Sky conditions: partly cloudy
Temperature: 80 F (27 C)
Dew Point: 60 F (16 C)
Relative Humidity: 50%
Pressure (altimeter): 29.74 in. Hg (1007 hPa)
ob: EDDS 271320Z VRB03KT 9999 SCT046 SCT074 27/16 Q1007 NOSIG
cycle: 13
Karlsruhe, Baden Wurttemberg, Germany (EDSB) 48-46-43N 008-04-47E
Jun 27, 2017 - 09:20 AM EDT / 2017.06.27 1320 UTC
Wind: Variable at 3 MPH (3 KT):0
Visibility: greater than 7 mile(s):0
Sky conditions: partly cloudy
Temperature: 80 F (27 C)
Dew Point: 60 F (16 C)
Relative Humidity: 50%
Pressure (altimeter): 29.71 in. Hg (1006 hPa)
ob: EDSB 271320Z VRB03KT 9999 FEW015 SCT140 27/16 Q1006
cycle: 13
Lahr, CAN-AFB, Germany (EDTL) 48-22-09N 007-49-40E
Jun 27, 2017 - 09:20 AM EDT / 2017.06.27 1320 UTC
Wind: from the SSW (200 degrees) at 7 MPH (6 KT) (direction variable):0
Visibility: greater than 7 mile(s):0
Sky conditions: partly cloudy
Temperature: 82 F (28 C)
Dew Point: 59 F (15 C)
Relative Humidity: 45%
Pressure (altimeter): 29.71 in. Hg (1006 hPa)
ob: EDTL 271320Z 20006KT 150V240 9999 SCT043 28/15 Q1006
cycle: 13
Laupheim, Germany (ETHL) 48-13N 009-55E 550M
Jun 27, 2017 - 09:20 AM EDT / 2017.06.27 1320 UTC
Wind: from the WNW (290 degrees) at 5 MPH (4 KT):0
Visibility: greater than 7 mile(s):0
Sky conditions: partly cloudy
Weather: Towering cumulus clouds observed
Temperature: 78 F (26 C)
Dew Point: 57 F (14 C)
Relative Humidity: 47%
Pressure (altimeter): 29.80 in. Hg (1009 hPa)
ob: ETHL 271320Z 29004KT 9999 FEW040TCU SCT120 26/14 Q1009 BLU+BLU+
cycle: 13


Klicken Sie hier, um eine Übersicht der Durchschnitts- u. Extremwerte für den Monat zu erhalten


Die Datenübertragung findet alle 5 Minuten statt.

Drücken Sie gegebenenfalls auf "Aktualisieren" in Ihrem Browser, um die aktuellsten Daten zu erhalten.

Created by "Weather Display" software version 10.37S at this start time/date 23:14:12 18.10.2016